sensor_id;sensor_type;location;lat;lon;timestamp;P1;durP1;ratioP1;P2;durP2;ratioP2
8978;SDS011;4524;51.364;5.448;2022-07-23T00:00:47;5.97;;;4.80;;
8978;SDS011;4524;51.364;5.448;2022-07-23T00:03:15;6.20;;;5.00;;
8978;SDS011;4524;51.364;5.448;2022-07-23T00:05:43;9.53;;;4.90;;
8978;SDS011;4524;51.364;5.448;2022-07-23T00:08:11;6.40;;;4.90;;
8978;SDS011;4524;51.364;5.448;2022-07-23T00:10:39;6.77;;;4.93;;
8978;SDS011;4524;51.364;5.448;2022-07-23T00:13:09;7.77;;;5.47;;
8978;SDS011;4524;51.364;5.448;2022-07-23T00:15:37;6.97;;;5.20;;
8978;SDS011;4524;51.364;5.448;2022-07-23T00:18:05;5.90;;;5.23;;
8978;SDS011;4524;51.364;5.448;2022-07-23T00:20:33;6.00;;;5.40;;
8978;SDS011;4524;51.364;5.448;2022-07-23T00:23:01;8.67;;;5.13;;
8978;SDS011;4524;51.364;5.448;2022-07-23T00:25:29;5.93;;;5.33;;
8978;SDS011;4524;51.364;5.448;2022-07-23T00:27:57;7.57;;;5.20;;
8978;SDS011;4524;51.364;5.448;2022-07-23T00:30:29;5.63;;;4.97;;
8978;SDS011;4524;51.364;5.448;2022-07-23T00:32:59;9.43;;;5.50;;
8978;SDS011;4524;51.364;5.448;2022-07-23T00:35:30;6.63;;;5.57;;
8978;SDS011;4524;51.364;5.448;2022-07-23T00:37:59;8.13;;;4.90;;
8978;SDS011;4524;51.364;5.448;2022-07-23T00:40:27;6.57;;;5.87;;
8978;SDS011;4524;51.364;5.448;2022-07-23T00:42:56;6.20;;;5.60;;
8978;SDS011;4524;51.364;5.448;2022-07-23T00:45:25;8.07;;;6.00;;
8978;SDS011;4524;51.364;5.448;2022-07-23T00:47:55;7.33;;;5.47;;
8978;SDS011;4524;51.364;5.448;2022-07-23T00:50:24;6.50;;;5.70;;
8978;SDS011;4524;51.364;5.448;2022-07-23T00:52:53;6.67;;;5.70;;
8978;SDS011;4524;51.364;5.448;2022-07-23T00:55:21;8.03;;;5.13;;
8978;SDS011;4524;51.364;5.448;2022-07-23T00:57:50;7.40;;;5.40;;
8978;SDS011;4524;51.364;5.448;2022-07-23T01:00:19;5.57;;;5.07;;
8978;SDS011;4524;51.364;5.448;2022-07-23T01:02:47;9.57;;;5.40;;
8978;SDS011;4524;51.364;5.448;2022-07-23T01:05:16;7.00;;;4.93;;
8978;SDS011;4524;51.364;5.448;2022-07-23T01:07:48;5.37;;;4.87;;
8978;SDS011;4524;51.364;5.448;2022-07-23T01:10:21;5.63;;;5.07;;
8978;SDS011;4524;51.364;5.448;2022-07-23T01:12:59;6.60;;;5.07;;
8978;SDS011;4524;51.364;5.448;2022-07-23T01:15:28;6.03;;;5.43;;
8978;SDS011;4524;51.364;5.448;2022-07-23T01:17:57;5.47;;;4.70;;
8978;SDS011;4524;51.364;5.448;2022-07-23T01:20:27;5.73;;;5.13;;
8978;SDS011;4524;51.364;5.448;2022-07-23T01:22:57;5.00;;;4.60;;
8978;SDS011;4524;51.364;5.448;2022-07-23T01:25:25;7.67;;;4.70;;
8978;SDS011;4524;51.364;5.448;2022-07-23T01:27:57;6.53;;;4.80;;
8978;SDS011;4524;51.364;5.448;2022-07-23T01:30:25;4.87;;;4.47;;
8978;SDS011;4524;51.364;5.448;2022-07-23T01:32:54;7.40;;;5.00;;
8978;SDS011;4524;51.364;5.448;2022-07-23T01:35:23;7.37;;;5.77;;
8978;SDS011;4524;51.364;5.448;2022-07-23T01:37:54;7.87;;;6.10;;
8978;SDS011;4524;51.364;5.448;2022-07-23T01:40:23;5.80;;;5.27;;
8978;SDS011;4524;51.364;5.448;2022-07-23T01:42:53;5.90;;;5.40;;
8978;SDS011;4524;51.364;5.448;2022-07-23T01:45:21;5.97;;;5.37;;
8978;SDS011;4524;51.364;5.448;2022-07-23T01:47:50;7.07;;;5.27;;
8978;SDS011;4524;51.364;5.448;2022-07-23T01:50:19;5.77;;;4.90;;
8978;SDS011;4524;51.364;5.448;2022-07-23T01:53:05;6.87;;;4.90;;
8978;SDS011;4524;51.364;5.448;2022-07-23T01:55:36;7.13;;;5.90;;
8978;SDS011;4524;51.364;5.448;2022-07-23T01:58:05;6.17;;;5.57;;
8978;SDS011;4524;51.364;5.448;2022-07-23T02:00:33;7.67;;;5.67;;
8978;SDS011;4524;51.364;5.448;2022-07-23T02:03:01;5.53;;;5.03;;
8978;SDS011;4524;51.364;5.448;2022-07-23T02:05:30;8.93;;;5.77;;
8978;SDS011;4524;51.364;5.448;2022-07-23T02:07:59;8.27;;;5.97;;
8978;SDS011;4524;51.364;5.448;2022-07-23T02:10:31;7.07;;;5.30;;
8978;SDS011;4524;51.364;5.448;2022-07-23T02:13:03;8.43;;;5.97;;
8978;SDS011;4524;51.364;5.448;2022-07-23T02:15:31;7.00;;;6.30;;
8978;SDS011;4524;51.364;5.448;2022-07-23T02:17:59;7.10;;;5.70;;
8978;SDS011;4524;51.364;5.448;2022-07-23T02:20:30;7.73;;;5.60;;
8978;SDS011;4524;51.364;5.448;2022-07-23T02:22:58;5.27;;;4.60;;
8978;SDS011;4524;51.364;5.448;2022-07-23T02:25:26;8.13;;;6.13;;
8978;SDS011;4524;51.364;5.448;2022-07-23T02:27:59;7.97;;;6.00;;
8978;SDS011;4524;51.364;5.448;2022-07-23T02:30:28;7.03;;;5.93;;
8978;SDS011;4524;51.364;5.448;2022-07-23T02:32:56;5.80;;;5.30;;
8978;SDS011;4524;51.364;5.448;2022-07-23T02:35:24;8.27;;;5.83;;
8978;SDS011;4524;51.364;5.448;2022-07-23T02:37:52;6.47;;;5.20;;
8978;SDS011;4524;51.364;5.448;2022-07-23T02:40:20;5.70;;;5.10;;
8978;SDS011;4524;51.364;5.448;2022-07-23T02:42:48;6.63;;;5.90;;
8978;SDS011;4524;51.364;5.448;2022-07-23T02:45:16;5.00;;;4.20;;
8978;SDS011;4524;51.364;5.448;2022-07-23T02:47:46;7.93;;;5.57;;
8978;SDS011;4524;51.364;5.448;2022-07-23T02:50:14;7.70;;;6.13;;
8978;SDS011;4524;51.364;5.448;2022-07-23T02:52:42;6.67;;;5.17;;
8978;SDS011;4524;51.364;5.448;2022-07-23T02:55:11;7.03;;;6.17;;
8978;SDS011;4524;51.364;5.448;2022-07-23T02:57:39;6.47;;;5.60;;
8978;SDS011;4524;51.364;5.448;2022-07-23T03:00:07;8.17;;;5.67;;
8978;SDS011;4524;51.364;5.448;2022-07-23T03:02:37;6.00;;;5.40;;
8978;SDS011;4524;51.364;5.448;2022-07-23T03:05:07;6.87;;;5.10;;
8978;SDS011;4524;51.364;5.448;2022-07-23T03:07:36;7.17;;;5.40;;
8978;SDS011;4524;51.364;5.448;2022-07-23T03:10:04;10.43;;;5.80;;
8978;SDS011;4524;51.364;5.448;2022-07-23T03:12:32;7.27;;;5.87;;
8978;SDS011;4524;51.364;5.448;2022-07-23T03:15:01;6.13;;;5.53;;
8978;SDS011;4524;51.364;5.448;2022-07-23T03:17:29;6.23;;;5.70;;
8978;SDS011;4524;51.364;5.448;2022-07-23T03:19:57;9.43;;;5.60;;
8978;SDS011;4524;51.364;5.448;2022-07-23T03:22:27;6.63;;;6.00;;
8978;SDS011;4524;51.364;5.448;2022-07-23T03:24:54;9.20;;;6.73;;
8978;SDS011;4524;51.364;5.448;2022-07-23T03:27:26;7.83;;;6.33;;
8978;SDS011;4524;51.364;5.448;2022-07-23T03:29:57;6.57;;;5.90;;
8978;SDS011;4524;51.364;5.448;2022-07-23T03:32:26;9.93;;;6.50;;
8978;SDS011;4524;51.364;5.448;2022-07-23T03:34:55;9.53;;;6.70;;
8978;SDS011;4524;51.364;5.448;2022-07-23T03:37:23;6.43;;;5.83;;
8978;SDS011;4524;51.364;5.448;2022-07-23T03:39:52;5.83;;;5.23;;
8978;SDS011;4524;51.364;5.448;2022-07-23T03:42:20;6.60;;;5.10;;
8978;SDS011;4524;51.364;5.448;2022-07-23T03:44:48;6.00;;;5.17;;
8978;SDS011;4524;51.364;5.448;2022-07-23T03:47:16;6.00;;;5.40;;
8978;SDS011;4524;51.364;5.448;2022-07-23T03:49:48;5.47;;;4.97;;
8978;SDS011;4524;51.364;5.448;2022-07-23T03:52:16;6.37;;;5.53;;
8978;SDS011;4524;51.364;5.448;2022-07-23T03:54:44;6.97;;;5.50;;
8978;SDS011;4524;51.364;5.448;2022-07-23T03:57:13;7.33;;;6.03;;
8978;SDS011;4524;51.364;5.448;2022-07-23T03:59:41;6.17;;;5.57;;
8978;SDS011;4524;51.364;5.448;2022-07-23T04:02:10;7.27;;;5.63;;
8978;SDS011;4524;51.364;5.448;2022-07-23T04:04:38;6.33;;;5.70;;
8978;SDS011;4524;51.364;5.448;2022-07-23T04:07:06;7.10;;;5.57;;
8978;SDS011;4524;51.364;5.448;2022-07-23T04:09:36;6.20;;;5.57;;
8978;SDS011;4524;51.364;5.448;2022-07-23T04:12:13;6.60;;;5.80;;
8978;SDS011;4524;51.364;5.448;2022-07-23T04:14:41;5.27;;;4.83;;
8978;SDS011;4524;51.364;5.448;2022-07-23T04:17:09;6.00;;;5.43;;
8978;SDS011;4524;51.364;5.448;2022-07-23T04:19:37;6.73;;;6.03;;
8978;SDS011;4524;51.364;5.448;2022-07-23T04:22:08;7.60;;;6.10;;
8978;SDS011;4524;51.364;5.448;2022-07-23T04:24:36;6.93;;;5.53;;
8978;SDS011;4524;51.364;5.448;2022-07-23T04:27:04;7.30;;;5.77;;
8978;SDS011;4524;51.364;5.448;2022-07-23T04:29:34;6.47;;;5.77;;
8978;SDS011;4524;51.364;5.448;2022-07-23T04:32:02;7.00;;;5.93;;
8978;SDS011;4524;51.364;5.448;2022-07-23T04:34:30;6.23;;;5.63;;
8978;SDS011;4524;51.364;5.448;2022-07-23T04:36:59;6.57;;;5.97;;
8978;SDS011;4524;51.364;5.448;2022-07-23T04:39:29;6.53;;;5.87;;
8978;SDS011;4524;51.364;5.448;2022-07-23T04:41:57;9.07;;;7.57;;
8978;SDS011;4524;51.364;5.448;2022-07-23T04:44:26;9.07;;;7.13;;
8978;SDS011;4524;51.364;5.448;2022-07-23T04:46:56;7.83;;;6.33;;
8978;SDS011;4524;51.364;5.448;2022-07-23T04:49:24;10.10;;;7.93;;
8978;SDS011;4524;51.364;5.448;2022-07-23T04:51:53;9.87;;;8.87;;
8978;SDS011;4524;51.364;5.448;2022-07-23T04:54:21;9.50;;;8.60;;
8978;SDS011;4524;51.364;5.448;2022-07-23T04:56:49;11.53;;;10.00;;
8978;SDS011;4524;51.364;5.448;2022-07-23T04:59:17;10.87;;;9.40;;
8978;SDS011;4524;51.364;5.448;2022-07-23T05:01:48;10.93;;;9.93;;
8978;SDS011;4524;51.364;5.448;2022-07-23T05:04:18;11.73;;;10.23;;
8978;SDS011;4524;51.364;5.448;2022-07-23T05:06:47;15.23;;;12.57;;
8978;SDS011;4524;51.364;5.448;2022-07-23T05:09:15;13.47;;;11.40;;
8978;SDS011;4524;51.364;5.448;2022-07-23T05:11:43;11.77;;;10.40;;
8978;SDS011;4524;51.364;5.448;2022-07-23T05:14:11;12.23;;;10.70;;
8978;SDS011;4524;51.364;5.448;2022-07-23T05:16:39;11.73;;;10.13;;
8978;SDS011;4524;51.364;5.448;2022-07-23T05:19:14;12.27;;;10.67;;
8978;SDS011;4524;51.364;5.448;2022-07-23T05:21:43;11.10;;;10.10;;
8978;SDS011;4524;51.364;5.448;2022-07-23T05:24:11;11.03;;;9.83;;
8978;SDS011;4524;51.364;5.448;2022-07-23T05:26:40;10.33;;;9.30;;
8978;SDS011;4524;51.364;5.448;2022-07-23T05:29:08;11.33;;;10.27;;
8978;SDS011;4524;51.364;5.448;2022-07-23T05:31:36;8.93;;;8.03;;
8978;SDS011;4524;51.364;5.448;2022-07-23T05:34:05;11.83;;;10.30;;
8978;SDS011;4524;51.364;5.448;2022-07-23T05:36:34;11.13;;;9.50;;
8978;SDS011;4524;51.364;5.448;2022-07-23T05:39:04;7.83;;;6.97;;
8978;SDS011;4524;51.364;5.448;2022-07-23T05:41:35;10.63;;;8.70;;
8978;SDS011;4524;51.364;5.448;2022-07-23T05:44:03;10.37;;;9.23;;
8978;SDS011;4524;51.364;5.448;2022-07-23T05:46:33;10.53;;;9.43;;
8978;SDS011;4524;51.364;5.448;2022-07-23T05:49:05;9.30;;;8.30;;
8978;SDS011;4524;51.364;5.448;2022-07-23T05:51:53;8.90;;;8.10;;
8978;SDS011;4524;51.364;5.448;2022-07-23T05:54:34;9.47;;;8.57;;
8978;SDS011;4524;51.364;5.448;2022-07-23T05:57:03;13.03;;;10.70;;
8978;SDS011;4524;51.364;5.448;2022-07-23T05:59:31;10.67;;;9.77;;
8978;SDS011;4524;51.364;5.448;2022-07-23T06:01:59;10.13;;;9.03;;
8978;SDS011;4524;51.364;5.448;2022-07-23T06:04:27;11.13;;;9.77;;
8978;SDS011;4524;51.364;5.448;2022-07-23T06:07:22;10.93;;;9.93;;
8978;SDS011;4524;51.364;5.448;2022-07-23T06:09:52;7.93;;;7.23;;
8978;SDS011;4524;51.364;5.448;2022-07-23T06:12:20;9.03;;;8.13;;
8978;SDS011;4524;51.364;5.448;2022-07-23T06:14:48;10.03;;;9.03;;
8978;SDS011;4524;51.364;5.448;2022-07-23T06:17:19;10.03;;;9.07;;
8978;SDS011;4524;51.364;5.448;2022-07-23T06:19:47;8.07;;;6.83;;
8978;SDS011;4524;51.364;5.448;2022-07-23T06:22:17;10.47;;;7.10;;
8978;SDS011;4524;51.364;5.448;2022-07-23T06:24:45;8.30;;;6.70;;
8978;SDS011;4524;51.364;5.448;2022-07-23T06:27:15;8.33;;;6.17;;
8978;SDS011;4524;51.364;5.448;2022-07-23T06:29:49;9.27;;;8.10;;
8978;SDS011;4524;51.364;5.448;2022-07-23T06:32:17;6.97;;;6.27;;
8978;SDS011;4524;51.364;5.448;2022-07-23T06:34:45;7.10;;;6.07;;
8978;SDS011;4524;51.364;5.448;2022-07-23T06:37:14;7.67;;;6.23;;
8978;SDS011;4524;51.364;5.448;2022-07-23T06:39:45;6.90;;;6.20;;
8978;SDS011;4524;51.364;5.448;2022-07-23T06:42:14;6.10;;;4.67;;
8978;SDS011;4524;51.364;5.448;2022-07-23T06:44:43;8.33;;;5.77;;
8978;SDS011;4524;51.364;5.448;2022-07-23T06:47:15;6.40;;;5.70;;
8978;SDS011;4524;51.364;5.448;2022-07-23T06:49:43;6.17;;;5.43;;
8978;SDS011;4524;51.364;5.448;2022-07-23T06:52:11;7.43;;;5.60;;
8978;SDS011;4524;51.364;5.448;2022-07-23T06:54:39;7.87;;;5.90;;
8978;SDS011;4524;51.364;5.448;2022-07-23T06:57:07;8.10;;;5.50;;
8978;SDS011;4524;51.364;5.448;2022-07-23T06:59:36;7.57;;;4.53;;
8978;SDS011;4524;51.364;5.448;2022-07-23T07:02:06;7.77;;;4.67;;
8978;SDS011;4524;51.364;5.448;2022-07-23T07:04:35;5.93;;;4.43;;
8978;SDS011;4524;51.364;5.448;2022-07-23T07:07:03;5.07;;;3.73;;
8978;SDS011;4524;51.364;5.448;2022-07-23T07:09:31;3.77;;;3.37;;
8978;SDS011;4524;51.364;5.448;2022-07-23T07:11:59;3.97;;;3.33;;
8978;SDS011;4524;51.364;5.448;2022-07-23T07:14:27;5.33;;;3.47;;
8978;SDS011;4524;51.364;5.448;2022-07-23T07:16:56;4.47;;;3.03;;
8978;SDS011;4524;51.364;5.448;2022-07-23T07:19:24;4.27;;;3.63;;
8978;SDS011;4524;51.364;5.448;2022-07-23T07:21:52;6.27;;;3.60;;
8978;SDS011;4524;51.364;5.448;2022-07-23T07:24:20;4.50;;;3.80;;
8978;SDS011;4524;51.364;5.448;2022-07-23T07:26:54;6.43;;;3.87;;
8978;SDS011;4524;51.364;5.448;2022-07-23T07:29:22;4.17;;;3.73;;
8978;SDS011;4524;51.364;5.448;2022-07-23T07:31:50;5.27;;;4.00;;
8978;SDS011;4524;51.364;5.448;2022-07-23T07:34:20;5.23;;;4.00;;
8978;SDS011;4524;51.364;5.448;2022-07-23T07:36:48;5.40;;;3.87;;
8978;SDS011;4524;51.364;5.448;2022-07-23T07:39:17;4.47;;;3.57;;
8978;SDS011;4524;51.364;5.448;2022-07-23T07:41:45;4.20;;;3.80;;
8978;SDS011;4524;51.364;5.448;2022-07-23T07:44:12;4.30;;;3.40;;
8978;SDS011;4524;51.364;5.448;2022-07-23T07:46:40;3.33;;;2.90;;
8978;SDS011;4524;51.364;5.448;2022-07-23T07:49:08;4.03;;;3.63;;
8978;SDS011;4524;51.364;5.448;2022-07-23T07:51:42;5.27;;;3.87;;
8978;SDS011;4524;51.364;5.448;2022-07-23T07:54:10;4.00;;;2.70;;
8978;SDS011;4524;51.364;5.448;2022-07-23T07:56:39;4.33;;;3.17;;
8978;SDS011;4524;51.364;5.448;2022-07-23T07:59:07;6.53;;;3.40;;
8978;SDS011;4524;51.364;5.448;2022-07-23T08:01:36;5.93;;;3.27;;
8978;SDS011;4524;51.364;5.448;2022-07-23T08:04:04;4.97;;;3.70;;
8978;SDS011;4524;51.364;5.448;2022-07-23T08:06:32;5.83;;;3.77;;
8978;SDS011;4524;51.364;5.448;2022-07-23T08:09:01;4.07;;;3.53;;
8978;SDS011;4524;51.364;5.448;2022-07-23T08:11:29;4.80;;;4.17;;
8978;SDS011;4524;51.364;5.448;2022-07-23T08:13:57;4.07;;;3.50;;
8978;SDS011;4524;51.364;5.448;2022-07-23T08:16:25;6.33;;;3.27;;
8978;SDS011;4524;51.364;5.448;2022-07-23T08:18:54;6.00;;;3.47;;
8978;SDS011;4524;51.364;5.448;2022-07-23T08:21:22;5.87;;;3.53;;
8978;SDS011;4524;51.364;5.448;2022-07-23T08:23:50;3.87;;;3.40;;
8978;SDS011;4524;51.364;5.448;2022-07-23T08:26:19;5.00;;;3.30;;
8978;SDS011;4524;51.364;5.448;2022-07-23T08:28:47;7.17;;;3.70;;
8978;SDS011;4524;51.364;5.448;2022-07-23T08:31:15;4.13;;;3.37;;
8978;SDS011;4524;51.364;5.448;2022-07-23T08:33:44;3.63;;;3.30;;
8978;SDS011;4524;51.364;5.448;2022-07-23T08:36:30;5.00;;;3.60;;
8978;SDS011;4524;51.364;5.448;2022-07-23T08:38:59;4.07;;;3.30;;
8978;SDS011;4524;51.364;5.448;2022-07-23T08:41:30;5.33;;;3.53;;
8978;SDS011;4524;51.364;5.448;2022-07-23T08:43:59;3.53;;;3.07;;
8978;SDS011;4524;51.364;5.448;2022-07-23T08:46:28;5.20;;;3.47;;
8978;SDS011;4524;51.364;5.448;2022-07-23T08:48:56;5.43;;;3.13;;
8978;SDS011;4524;51.364;5.448;2022-07-23T08:51:25;4.33;;;2.90;;
8978;SDS011;4524;51.364;5.448;2022-07-23T08:53:55;3.20;;;2.90;;
8978;SDS011;4524;51.364;5.448;2022-07-23T08:56:25;4.40;;;2.50;;
8978;SDS011;4524;51.364;5.448;2022-07-23T08:58:54;5.20;;;3.30;;
8978;SDS011;4524;51.364;5.448;2022-07-23T09:01:22;3.67;;;2.87;;
8978;SDS011;4524;51.364;5.448;2022-07-23T09:03:50;4.30;;;3.17;;
8978;SDS011;4524;51.364;5.448;2022-07-23T09:06:18;6.13;;;3.27;;
8978;SDS011;4524;51.364;5.448;2022-07-23T09:08:46;3.57;;;3.10;;
8978;SDS011;4524;51.364;5.448;2022-07-23T09:11:15;4.53;;;3.50;;
8978;SDS011;4524;51.364;5.448;2022-07-23T09:13:45;5.03;;;3.10;;
8978;SDS011;4524;51.364;5.448;2022-07-23T09:16:16;5.53;;;2.90;;
8978;SDS011;4524;51.364;5.448;2022-07-23T09:18:46;3.77;;;3.00;;
8978;SDS011;4524;51.364;5.448;2022-07-23T09:21:17;3.73;;;2.90;;
8978;SDS011;4524;51.364;5.448;2022-07-23T09:23:48;5.47;;;3.07;;
8978;SDS011;4524;51.364;5.448;2022-07-23T09:26:20;3.73;;;3.00;;
8978;SDS011;4524;51.364;5.448;2022-07-23T09:28:50;3.87;;;2.70;;
8978;SDS011;4524;51.364;5.448;2022-07-23T09:31:23;3.30;;;2.97;;
8978;SDS011;4524;51.364;5.448;2022-07-23T09:33:51;3.97;;;3.37;;
8978;SDS011;4524;51.364;5.448;2022-07-23T09:36:38;5.87;;;3.60;;
8978;SDS011;4524;51.364;5.448;2022-07-23T09:39:07;4.87;;;2.90;;
8978;SDS011;4524;51.364;5.448;2022-07-23T09:41:36;3.57;;;3.20;;
8978;SDS011;4524;51.364;5.448;2022-07-23T09:44:07;5.03;;;3.70;;
8978;SDS011;4524;51.364;5.448;2022-07-23T09:46:38;8.27;;;3.70;;
8978;SDS011;4524;51.364;5.448;2022-07-23T09:49:10;3.90;;;3.10;;
8978;SDS011;4524;51.364;5.448;2022-07-23T09:51:44;3.87;;;3.40;;
8978;SDS011;4524;51.364;5.448;2022-07-23T09:54:20;5.27;;;3.13;;
8978;SDS011;4524;51.364;5.448;2022-07-23T09:56:55;3.60;;;3.30;;
8978;SDS011;4524;51.364;5.448;2022-07-23T09:59:25;5.17;;;3.23;;
8978;SDS011;4524;51.364;5.448;2022-07-23T10:01:56;3.33;;;3.03;;
8978;SDS011;4524;51.364;5.448;2022-07-23T10:04:28;4.17;;;3.30;;
8978;SDS011;4524;51.364;5.448;2022-07-23T10:07:14;5.07;;;4.33;;
8978;SDS011;4524;51.364;5.448;2022-07-23T10:10:11;3.57;;;3.00;;
8978;SDS011;4524;51.364;5.448;2022-07-23T10:13:07;5.07;;;3.27;;
8978;SDS011;4524;51.364;5.448;2022-07-23T10:15:54;4.03;;;3.10;;
8978;SDS011;4524;51.364;5.448;2022-07-23T10:18:24;4.10;;;3.70;;
8978;SDS011;4524;51.364;5.448;2022-07-23T10:20:52;5.30;;;3.40;;
8978;SDS011;4524;51.364;5.448;2022-07-23T10:23:22;3.90;;;3.17;;
8978;SDS011;4524;51.364;5.448;2022-07-23T10:25:59;3.20;;;2.90;;
8978;SDS011;4524;51.364;5.448;2022-07-23T10:28:42;3.50;;;3.20;;
8978;SDS011;4524;51.364;5.448;2022-07-23T10:31:26;3.70;;;3.20;;
8978;SDS011;4524;51.364;5.448;2022-07-23T10:34:25;4.17;;;3.70;;
8978;SDS011;4524;51.364;5.448;2022-07-23T10:37:05;4.67;;;3.90;;
8978;SDS011;4524;51.364;5.448;2022-07-23T10:39:45;6.07;;;3.30;;
8978;SDS011;4524;51.364;5.448;2022-07-23T10:42:13;3.40;;;2.83;;
8978;SDS011;4524;51.364;5.448;2022-07-23T10:44:45;3.17;;;2.73;;
8978;SDS011;4524;51.364;5.448;2022-07-23T10:47:20;3.70;;;3.17;;
8978;SDS011;4524;51.364;5.448;2022-07-23T10:50:20;5.10;;;3.23;;
8978;SDS011;4524;51.364;5.448;2022-07-23T10:53:12;5.40;;;3.17;;
8978;SDS011;4524;51.364;5.448;2022-07-23T10:55:45;5.13;;;3.53;;
8978;SDS011;4524;51.364;5.448;2022-07-23T10:58:19;4.07;;;3.30;;
8978;SDS011;4524;51.364;5.448;2022-07-23T11:00:48;3.83;;;3.03;;
8978;SDS011;4524;51.364;5.448;2022-07-23T11:03:31;4.63;;;3.60;;
8978;SDS011;4524;51.364;5.448;2022-07-23T11:06:04;4.93;;;3.73;;
8978;SDS011;4524;51.364;5.448;2022-07-23T11:08:33;3.80;;;3.50;;
8978;SDS011;4524;51.364;5.448;2022-07-23T11:11:08;4.23;;;3.80;;
8978;SDS011;4524;51.364;5.448;2022-07-23T11:13:38;5.10;;;4.20;;
8978;SDS011;4524;51.364;5.448;2022-07-23T11:16:19;4.23;;;3.63;;
8978;SDS011;4524;51.364;5.448;2022-07-23T11:18:57;4.83;;;3.63;;
8978;SDS011;4524;51.364;5.448;2022-07-23T11:21:42;4.60;;;3.53;;
8978;SDS011;4524;51.364;5.448;2022-07-23T11:24:18;4.90;;;3.27;;
8978;SDS011;4524;51.364;5.448;2022-07-23T11:26:48;3.67;;;3.23;;
8978;SDS011;4524;51.364;5.448;2022-07-23T11:29:38;4.17;;;3.77;;
8978;SDS011;4524;51.364;5.448;2022-07-23T11:32:27;4.17;;;2.70;;
8978;SDS011;4524;51.364;5.448;2022-07-23T11:34:59;5.03;;;3.20;;
8978;SDS011;4524;51.364;5.448;2022-07-23T11:37:31;3.03;;;2.73;;
8978;SDS011;4524;51.364;5.448;2022-07-23T11:40:02;4.80;;;3.70;;
8978;SDS011;4524;51.364;5.448;2022-07-23T11:42:34;4.97;;;3.17;;
8978;SDS011;4524;51.364;5.448;2022-07-23T11:45:04;3.47;;;2.43;;
8978;SDS011;4524;51.364;5.448;2022-07-23T11:47:33;4.23;;;2.70;;
8978;SDS011;4524;51.364;5.448;2022-07-23T11:50:02;4.53;;;3.50;;
8978;SDS011;4524;51.364;5.448;2022-07-23T11:52:34;4.40;;;3.63;;
8978;SDS011;4524;51.364;5.448;2022-07-23T11:55:07;5.40;;;3.30;;
8978;SDS011;4524;51.364;5.448;2022-07-23T11:57:37;3.37;;;2.80;;
8978;SDS011;4524;51.364;5.448;2022-07-23T12:00:15;3.30;;;3.00;;
8978;SDS011;4524;51.364;5.448;2022-07-23T12:02:45;3.33;;;3.03;;
8978;SDS011;4524;51.364;5.448;2022-07-23T12:05:15;4.33;;;3.10;;
8978;SDS011;4524;51.364;5.448;2022-07-23T12:07:47;3.10;;;2.80;;
8978;SDS011;4524;51.364;5.448;2022-07-23T12:10:17;3.50;;;2.87;;
8978;SDS011;4524;51.364;5.448;2022-07-23T12:12:47;2.87;;;2.67;;
8978;SDS011;4524;51.364;5.448;2022-07-23T12:15:17;3.07;;;2.60;;
8978;SDS011;4524;51.364;5.448;2022-07-23T12:17:46;3.40;;;2.53;;
8978;SDS011;4524;51.364;5.448;2022-07-23T12:20:19;4.53;;;2.20;;
8978;SDS011;4524;51.364;5.448;2022-07-23T12:22:50;3.57;;;2.57;;
8978;SDS011;4524;51.364;5.448;2022-07-23T12:25:20;2.90;;;2.27;;
8978;SDS011;4524;51.364;5.448;2022-07-23T12:27:58;4.87;;;2.20;;
8978;SDS011;4524;51.364;5.448;2022-07-23T12:30:27;2.80;;;2.50;;
8978;SDS011;4524;51.364;5.448;2022-07-23T12:33:00;4.27;;;2.80;;
8978;SDS011;4524;51.364;5.448;2022-07-23T12:35:33;2.80;;;2.40;;
8978;SDS011;4524;51.364;5.448;2022-07-23T12:38:06;4.80;;;2.50;;
8978;SDS011;4524;51.364;5.448;2022-07-23T12:40:35;2.50;;;2.30;;
8978;SDS011;4524;51.364;5.448;2022-07-23T12:43:06;3.63;;;2.20;;
8978;SDS011;4524;51.364;5.448;2022-07-23T12:45:43;3.50;;;2.33;;
8978;SDS011;4524;51.364;5.448;2022-07-23T12:48:16;2.70;;;2.50;;
8978;SDS011;4524;51.364;5.448;2022-07-23T12:50:57;2.70;;;2.17;;
8978;SDS011;4524;51.364;5.448;2022-07-23T12:53:28;2.37;;;2.17;;
8978;SDS011;4524;51.364;5.448;2022-07-23T12:55:58;3.70;;;2.10;;
8978;SDS011;4524;51.364;5.448;2022-07-23T12:58:46;2.60;;;2.30;;
8978;SDS011;4524;51.364;5.448;2022-07-23T13:01:24;2.50;;;2.30;;
8978;SDS011;4524;51.364;5.448;2022-07-23T13:03:57;4.03;;;2.30;;
8978;SDS011;4524;51.364;5.448;2022-07-23T13:06:28;2.73;;;2.10;;
8978;SDS011;4524;51.364;5.448;2022-07-23T13:08:59;3.17;;;2.40;;
8978;SDS011;4524;51.364;5.448;2022-07-23T13:11:29;4.77;;;2.10;;
8978;SDS011;4524;51.364;5.448;2022-07-23T13:13:58;3.60;;;2.50;;
8978;SDS011;4524;51.364;5.448;2022-07-23T13:16:27;2.57;;;2.30;;
8978;SDS011;4524;51.364;5.448;2022-07-23T13:18:56;4.70;;;2.60;;
8978;SDS011;4524;51.364;5.448;2022-07-23T13:21:26;6.33;;;3.00;;
8978;SDS011;4524;51.364;5.448;2022-07-23T13:23:55;2.93;;;2.30;;
8978;SDS011;4524;51.364;5.448;2022-07-23T13:26:25;5.67;;;2.77;;
8978;SDS011;4524;51.364;5.448;2022-07-23T13:28:54;4.87;;;2.70;;
8978;SDS011;4524;51.364;5.448;2022-07-23T13:31:22;3.83;;;3.20;;
8978;SDS011;4524;51.364;5.448;2022-07-23T13:33:50;3.30;;;3.00;;
8978;SDS011;4524;51.364;5.448;2022-07-23T13:36:18;5.37;;;3.40;;
8978;SDS011;4524;51.364;5.448;2022-07-23T13:38:46;3.00;;;2.70;;
8978;SDS011;4524;51.364;5.448;2022-07-23T13:41:16;4.27;;;3.30;;
8978;SDS011;4524;51.364;5.448;2022-07-23T13:43:45;3.33;;;2.70;;
8978;SDS011;4524;51.364;5.448;2022-07-23T13:46:14;3.93;;;3.30;;
8978;SDS011;4524;51.364;5.448;2022-07-23T13:48:42;4.80;;;3.27;;
8978;SDS011;4524;51.364;5.448;2022-07-23T13:51:10;3.07;;;2.77;;
8978;SDS011;4524;51.364;5.448;2022-07-23T13:53:39;3.30;;;3.00;;
8978;SDS011;4524;51.364;5.448;2022-07-23T13:56:07;5.70;;;2.63;;
8978;SDS011;4524;51.364;5.448;2022-07-23T13:58:35;3.23;;;2.93;;
8978;SDS011;4524;51.364;5.448;2022-07-23T14:01:05;4.20;;;2.90;;
8978;SDS011;4524;51.364;5.448;2022-07-23T14:03:34;3.27;;;2.97;;
8978;SDS011;4524;51.364;5.448;2022-07-23T14:06:02;3.00;;;2.57;;
8978;SDS011;4524;51.364;5.448;2022-07-23T14:08:41;3.07;;;2.77;;
8978;SDS011;4524;51.364;5.448;2022-07-23T14:11:09;3.40;;;3.10;;
8978;SDS011;4524;51.364;5.448;2022-07-23T14:13:37;3.23;;;2.93;;
8978;SDS011;4524;51.364;5.448;2022-07-23T14:16:08;3.33;;;2.50;;
8978;SDS011;4524;51.364;5.448;2022-07-23T14:18:35;3.77;;;2.90;;
8978;SDS011;4524;51.364;5.448;2022-07-23T14:21:04;4.20;;;3.10;;
8978;SDS011;4524;51.364;5.448;2022-07-23T14:23:32;3.77;;;2.70;;
8978;SDS011;4524;51.364;5.448;2022-07-23T14:26:00;3.27;;;2.97;;
8978;SDS011;4524;51.364;5.448;2022-07-23T14:28:31;2.67;;;2.47;;
8978;SDS011;4524;51.364;5.448;2022-07-23T14:31:01;4.20;;;3.00;;
8978;SDS011;4524;51.364;5.448;2022-07-23T14:33:31;3.93;;;2.40;;
8978;SDS011;4524;51.364;5.448;2022-07-23T14:36:00;3.00;;;2.70;;
8978;SDS011;4524;51.364;5.448;2022-07-23T14:38:28;2.77;;;2.50;;
8978;SDS011;4524;51.364;5.448;2022-07-23T14:40:58;3.00;;;2.70;;
8978;SDS011;4524;51.364;5.448;2022-07-23T14:43:26;4.73;;;2.77;;
8978;SDS011;4524;51.364;5.448;2022-07-23T14:45:54;4.13;;;2.83;;
8978;SDS011;4524;51.364;5.448;2022-07-23T14:48:22;3.00;;;2.80;;
8978;SDS011;4524;51.364;5.448;2022-07-23T14:50:52;2.70;;;2.50;;
8978;SDS011;4524;51.364;5.448;2022-07-23T14:53:20;2.60;;;2.40;;
8978;SDS011;4524;51.364;5.448;2022-07-23T14:55:50;3.60;;;2.70;;
8978;SDS011;4524;51.364;5.448;2022-07-23T14:58:20;2.80;;;2.60;;
8978;SDS011;4524;51.364;5.448;2022-07-23T15:00:48;4.77;;;3.00;;
8978;SDS011;4524;51.364;5.448;2022-07-23T15:03:16;3.40;;;3.00;;
8978;SDS011;4524;51.364;5.448;2022-07-23T15:05:44;3.33;;;2.77;;
8978;SDS011;4524;51.364;5.448;2022-07-23T15:08:14;3.90;;;2.80;;
8978;SDS011;4524;51.364;5.448;2022-07-23T15:10:48;3.20;;;2.90;;
8978;SDS011;4524;51.364;5.448;2022-07-23T15:13:16;2.93;;;2.63;;
8978;SDS011;4524;51.364;5.448;2022-07-23T15:15:44;2.90;;;2.70;;
8978;SDS011;4524;51.364;5.448;2022-07-23T15:18:21;4.23;;;2.80;;
8978;SDS011;4524;51.364;5.448;2022-07-23T15:20:49;3.37;;;3.00;;
8978;SDS011;4524;51.364;5.448;2022-07-23T15:23:19;3.00;;;2.60;;
8978;SDS011;4524;51.364;5.448;2022-07-23T15:25:48;4.50;;;2.70;;
8978;SDS011;4524;51.364;5.448;2022-07-23T15:28:16;2.87;;;2.67;;
8978;SDS011;4524;51.364;5.448;2022-07-23T15:30:47;3.73;;;2.87;;
8978;SDS011;4524;51.364;5.448;2022-07-23T15:33:15;3.30;;;3.00;;
8978;SDS011;4524;51.364;5.448;2022-07-23T15:35:47;3.40;;;3.10;;